sensor_id;sensor_type;location;lat;lon;timestamp;P1;durP1;ratioP1;P2;durP2;ratioP2
54247;SDS011;40161;39.768;2.722;2022-12-10T00:01:48;9.85;;;3.17;;
54247;SDS011;40161;39.768;2.722;2022-12-10T00:07:37;5.95;;;2.17;;
54247;SDS011;40161;39.768;2.722;2022-12-10T00:10:02;7.53;;;3.15;;
54247;SDS011;40161;39.768;2.722;2022-12-10T00:12:28;5.97;;;2.53;;
54247;SDS011;40161;39.768;2.722;2022-12-10T00:14:54;7.28;;;2.60;;
54247;SDS011;40161;39.768;2.722;2022-12-10T00:17:19;7.32;;;3.05;;
54247;SDS011;40161;39.768;2.722;2022-12-10T00:19:44;10.95;;;2.90;;
54247;SDS011;40161;39.768;2.722;2022-12-10T00:22:10;9.52;;;3.30;;
54247;SDS011;40161;39.768;2.722;2022-12-10T00:24:36;15.90;;;4.95;;
54247;SDS011;40161;39.768;2.722;2022-12-10T00:27:01;14.52;;;3.92;;
54247;SDS011;40161;39.768;2.722;2022-12-10T00:29:27;8.00;;;3.08;;
54247;SDS011;40161;39.768;2.722;2022-12-10T00:31:52;6.32;;;2.58;;
54247;SDS011;40161;39.768;2.722;2022-12-10T00:34:17;7.20;;;2.85;;
54247;SDS011;40161;39.768;2.722;2022-12-10T00:36:44;6.35;;;2.53;;
54247;SDS011;40161;39.768;2.722;2022-12-10T00:39:12;7.60;;;2.60;;
54247;SDS011;40161;39.768;2.722;2022-12-10T00:41:39;6.65;;;2.63;;
54247;SDS011;40161;39.768;2.722;2022-12-10T00:44:05;7.28;;;2.47;;
54247;SDS011;40161;39.768;2.722;2022-12-10T00:46:30;12.35;;;3.63;;
54247;SDS011;40161;39.768;2.722;2022-12-10T00:48:57;11.25;;;3.30;;
54247;SDS011;40161;39.768;2.722;2022-12-10T00:54:45;10.00;;;2.80;;
54247;SDS011;40161;39.768;2.722;2022-12-10T00:57:11;9.82;;;2.95;;
54247;SDS011;40161;39.768;2.722;2022-12-10T01:02:58;5.50;;;1.52;;
54247;SDS011;40161;39.768;2.722;2022-12-10T01:05:24;4.03;;;1.42;;
54247;SDS011;40161;39.768;2.722;2022-12-10T01:07:50;3.70;;;1.30;;
54247;SDS011;40161;39.768;2.722;2022-12-10T01:10:17;7.10;;;2.05;;
54247;SDS011;40161;39.768;2.722;2022-12-10T01:12:43;8.50;;;2.80;;
54247;SDS011;40161;39.768;2.722;2022-12-10T01:15:09;9.57;;;2.83;;
54247;SDS011;40161;39.768;2.722;2022-12-10T01:17:35;9.73;;;2.90;;
54247;SDS011;40161;39.768;2.722;2022-12-10T01:20:01;11.75;;;3.28;;
54247;SDS011;40161;39.768;2.722;2022-12-10T01:25:48;12.98;;;3.42;;
54247;SDS011;40161;39.768;2.722;2022-12-10T01:28:14;10.68;;;3.67;;
54247;SDS011;40161;39.768;2.722;2022-12-10T01:30:39;13.57;;;3.83;;
54247;SDS011;40161;39.768;2.722;2022-12-10T01:33:04;8.55;;;2.63;;
54247;SDS011;40161;39.768;2.722;2022-12-10T01:35:30;6.63;;;2.28;;
54247;SDS011;40161;39.768;2.722;2022-12-10T01:37:55;8.73;;;3.17;;
54247;SDS011;40161;39.768;2.722;2022-12-10T01:40:21;8.50;;;2.80;;
54247;SDS011;40161;39.768;2.722;2022-12-10T01:42:46;8.43;;;3.00;;
54247;SDS011;40161;39.768;2.722;2022-12-10T01:45:12;10.77;;;3.50;;
54247;SDS011;40161;39.768;2.722;2022-12-10T01:47:38;7.00;;;3.05;;
54247;SDS011;40161;39.768;2.722;2022-12-10T01:50:05;7.03;;;2.20;;
54247;SDS011;40161;39.768;2.722;2022-12-10T01:52:32;5.53;;;2.17;;
54247;SDS011;40161;39.768;2.722;2022-12-10T01:54:57;5.72;;;2.03;;
54247;SDS011;40161;39.768;2.722;2022-12-10T01:57:24;6.18;;;2.25;;
54247;SDS011;40161;39.768;2.722;2022-12-10T01:59:55;4.80;;;1.95;;
54247;SDS011;40161;39.768;2.722;2022-12-10T02:02:43;5.25;;;1.70;;
54247;SDS011;40161;39.768;2.722;2022-12-10T02:05:32;4.45;;;1.70;;
54247;SDS011;40161;39.768;2.722;2022-12-10T02:15:59;3.92;;;1.40;;
54247;SDS011;40161;39.768;2.722;2022-12-10T02:18:32;4.25;;;1.40;;
54247;SDS011;40161;39.768;2.722;2022-12-10T02:21:29;3.78;;;1.08;;
54247;SDS011;40161;39.768;2.722;2022-12-10T02:24:00;3.50;;;1.10;;
54247;SDS011;40161;39.768;2.722;2022-12-10T02:26:40;3.50;;;1.20;;
54247;SDS011;40161;39.768;2.722;2022-12-10T02:29:12;4.38;;;1.40;;
54247;SDS011;40161;39.768;2.722;2022-12-10T02:32:18;2.22;;;1.10;;
54247;SDS011;40161;39.768;2.722;2022-12-10T02:34:48;7.45;;;1.40;;
54247;SDS011;40161;39.768;2.722;2022-12-10T02:37:22;4.75;;;1.23;;
54247;SDS011;40161;39.768;2.722;2022-12-10T02:39:53;4.18;;;1.38;;
54247;SDS011;40161;39.768;2.722;2022-12-10T02:42:21;5.50;;;1.35;;
54247;SDS011;40161;39.768;2.722;2022-12-10T02:44:51;3.13;;;1.33;;
54247;SDS011;40161;39.768;2.722;2022-12-10T02:47:19;5.85;;;1.60;;
54247;SDS011;40161;39.768;2.722;2022-12-10T02:49:45;7.00;;;1.80;;
54247;SDS011;40161;39.768;2.722;2022-12-10T02:52:14;4.15;;;1.95;;
54247;SDS011;40161;39.768;2.722;2022-12-10T02:54:43;5.47;;;1.60;;
54247;SDS011;40161;39.768;2.722;2022-12-10T02:57:32;5.53;;;1.70;;
54247;SDS011;40161;39.768;2.722;2022-12-10T03:03:11;5.63;;;1.50;;
54247;SDS011;40161;39.768;2.722;2022-12-10T03:06:02;2.30;;;0.90;;
54247;SDS011;40161;39.768;2.722;2022-12-10T03:11:30;3.28;;;1.00;;
54247;SDS011;40161;39.768;2.722;2022-12-10T03:14:00;3.08;;;0.70;;
54247;SDS011;40161;39.768;2.722;2022-12-10T03:16:38;5.05;;;1.10;;
54247;SDS011;40161;39.768;2.722;2022-12-10T03:19:10;4.03;;;1.38;;
54247;SDS011;40161;39.768;2.722;2022-12-10T03:21:39;3.42;;;1.20;;
54247;SDS011;40161;39.768;2.722;2022-12-10T03:24:07;5.82;;;1.33;;
54247;SDS011;40161;39.768;2.722;2022-12-10T03:26:35;3.88;;;1.10;;
54247;SDS011;40161;39.768;2.722;2022-12-10T03:29:05;4.45;;;1.30;;
54247;SDS011;40161;39.768;2.722;2022-12-10T03:31:33;6.07;;;1.02;;
54247;SDS011;40161;39.768;2.722;2022-12-10T03:34:00;6.45;;;1.35;;
54247;SDS011;40161;39.768;2.722;2022-12-10T03:36:27;3.08;;;0.82;;
54247;SDS011;40161;39.768;2.722;2022-12-10T03:38:55;2.78;;;1.05;;
54247;SDS011;40161;39.768;2.722;2022-12-10T03:41:20;5.47;;;1.10;;
54247;SDS011;40161;39.768;2.722;2022-12-10T03:43:50;5.47;;;1.20;;
54247;SDS011;40161;39.768;2.722;2022-12-10T03:46:16;3.13;;;0.90;;
54247;SDS011;40161;39.768;2.722;2022-12-10T03:48:42;3.47;;;1.00;;
54247;SDS011;40161;39.768;2.722;2022-12-10T03:51:07;4.10;;;1.20;;
54247;SDS011;40161;39.768;2.722;2022-12-10T03:53:33;2.85;;;0.70;;
54247;SDS011;40161;39.768;2.722;2022-12-10T03:55:58;4.50;;;0.95;;
54247;SDS011;40161;39.768;2.722;2022-12-10T03:58:24;4.22;;;0.90;;
54247;SDS011;40161;39.768;2.722;2022-12-10T04:00:50;5.30;;;0.90;;
54247;SDS011;40161;39.768;2.722;2022-12-10T04:03:15;4.53;;;1.02;;
54247;SDS011;40161;39.768;2.722;2022-12-10T04:05:41;7.80;;;1.00;;
54247;SDS011;40161;39.768;2.722;2022-12-10T04:08:06;3.88;;;1.08;;
54247;SDS011;40161;39.768;2.722;2022-12-10T04:10:35;4.35;;;1.08;;
54247;SDS011;40161;39.768;2.722;2022-12-10T04:13:01;7.05;;;1.30;;
54247;SDS011;40161;39.768;2.722;2022-12-10T04:15:45;6.30;;;1.17;;
54247;SDS011;40161;39.768;2.722;2022-12-10T04:18:29;9.27;;;1.50;;
54247;SDS011;40161;39.768;2.722;2022-12-10T04:20:54;5.18;;;1.27;;
54247;SDS011;40161;39.768;2.722;2022-12-10T04:23:38;5.95;;;1.17;;
54247;SDS011;40161;39.768;2.722;2022-12-10T04:26:22;8.25;;;1.60;;
54247;SDS011;40161;39.768;2.722;2022-12-10T04:29:06;7.32;;;1.40;;
54247;SDS011;40161;39.768;2.722;2022-12-10T04:31:32;5.18;;;1.13;;
54247;SDS011;40161;39.768;2.722;2022-12-10T04:33:58;4.75;;;1.10;;
54247;SDS011;40161;39.768;2.722;2022-12-10T04:36:23;7.25;;;1.13;;
54247;SDS011;40161;39.768;2.722;2022-12-10T04:38:49;6.43;;;1.30;;
54247;SDS011;40161;39.768;2.722;2022-12-10T04:41:14;4.65;;;0.93;;
54247;SDS011;40161;39.768;2.722;2022-12-10T04:43:41;3.92;;;1.10;;
54247;SDS011;40161;39.768;2.722;2022-12-10T04:46:07;7.85;;;1.30;;
54247;SDS011;40161;39.768;2.722;2022-12-10T04:48:36;7.18;;;1.17;;
54247;SDS011;40161;39.768;2.722;2022-12-10T04:51:02;8.00;;;1.38;;
54247;SDS011;40161;39.768;2.722;2022-12-10T04:53:28;7.32;;;1.42;;
54247;SDS011;40161;39.768;2.722;2022-12-10T04:55:53;4.43;;;1.40;;
54247;SDS011;40161;39.768;2.722;2022-12-10T04:58:19;6.95;;;1.73;;
54247;SDS011;40161;39.768;2.722;2022-12-10T05:00:44;6.05;;;1.23;;
54247;SDS011;40161;39.768;2.722;2022-12-10T05:03:10;9.45;;;1.27;;
54247;SDS011;40161;39.768;2.722;2022-12-10T05:05:35;7.28;;;1.20;;
54247;SDS011;40161;39.768;2.722;2022-12-10T05:08:01;4.28;;;1.02;;
54247;SDS011;40161;39.768;2.722;2022-12-10T05:10:27;6.57;;;1.40;;
54247;SDS011;40161;39.768;2.722;2022-12-10T05:12:52;6.93;;;1.38;;
54247;SDS011;40161;39.768;2.722;2022-12-10T05:15:18;5.38;;;1.40;;
54247;SDS011;40161;39.768;2.722;2022-12-10T05:17:43;6.18;;;1.42;;
54247;SDS011;40161;39.768;2.722;2022-12-10T05:20:09;5.70;;;1.30;;
54247;SDS011;40161;39.768;2.722;2022-12-10T05:22:35;9.48;;;1.65;;
54247;SDS011;40161;39.768;2.722;2022-12-10T05:25:19;3.40;;;1.15;;
54247;SDS011;40161;39.768;2.722;2022-12-10T05:27:45;3.30;;;1.20;;
54247;SDS011;40161;39.768;2.722;2022-12-10T05:30:11;4.75;;;1.40;;
54247;SDS011;40161;39.768;2.722;2022-12-10T05:32:37;5.22;;;1.50;;
54247;SDS011;40161;39.768;2.722;2022-12-10T05:35:02;6.20;;;1.60;;
54247;SDS011;40161;39.768;2.722;2022-12-10T05:37:28;4.57;;;1.30;;
54247;SDS011;40161;39.768;2.722;2022-12-10T05:39:54;4.88;;;1.70;;
54247;SDS011;40161;39.768;2.722;2022-12-10T05:42:20;6.57;;;2.40;;
54247;SDS011;40161;39.768;2.722;2022-12-10T05:44:45;7.00;;;2.13;;
54247;SDS011;40161;39.768;2.722;2022-12-10T05:47:11;4.07;;;1.70;;
54247;SDS011;40161;39.768;2.722;2022-12-10T05:49:36;3.90;;;1.98;;
54247;SDS011;40161;39.768;2.722;2022-12-10T05:52:02;4.72;;;1.88;;
54247;SDS011;40161;39.768;2.722;2022-12-10T05:54:27;4.97;;;1.95;;
54247;SDS011;40161;39.768;2.722;2022-12-10T05:56:53;7.07;;;2.30;;
54247;SDS011;40161;39.768;2.722;2022-12-10T05:59:19;6.38;;;1.77;;
54247;SDS011;40161;39.768;2.722;2022-12-10T06:01:45;6.53;;;1.20;;
54247;SDS011;40161;39.768;2.722;2022-12-10T06:04:11;4.18;;;0.90;;
54247;SDS011;40161;39.768;2.722;2022-12-10T06:06:37;3.15;;;0.80;;
54247;SDS011;40161;39.768;2.722;2022-12-10T06:09:04;1.77;;;0.60;;
54247;SDS011;40161;39.768;2.722;2022-12-10T06:11:32;2.15;;;0.50;;
54247;SDS011;40161;39.768;2.722;2022-12-10T06:13:58;1.60;;;0.50;;
54247;SDS011;40161;39.768;2.722;2022-12-10T06:16:25;1.30;;;0.50;;
54247;SDS011;40161;39.768;2.722;2022-12-10T06:18:52;1.83;;;0.40;;
54247;SDS011;40161;39.768;2.722;2022-12-10T06:21:18;1.33;;;0.63;;
54247;SDS011;40161;39.768;2.722;2022-12-10T06:23:45;1.67;;;0.55;;
54247;SDS011;40161;39.768;2.722;2022-12-10T06:26:12;2.13;;;0.50;;
54247;SDS011;40161;39.768;2.722;2022-12-10T06:28:49;3.38;;;0.60;;
54247;SDS011;40161;39.768;2.722;2022-12-10T06:31:15;1.80;;;0.40;;
54247;SDS011;40161;39.768;2.722;2022-12-10T06:33:41;2.90;;;0.50;;
54247;SDS011;40161;39.768;2.722;2022-12-10T06:36:07;1.15;;;0.40;;
54247;SDS011;40161;39.768;2.722;2022-12-10T06:38:34;0.77;;;0.38;;
54247;SDS011;40161;39.768;2.722;2022-12-10T06:41:03;3.88;;;0.60;;
54247;SDS011;40161;39.768;2.722;2022-12-10T06:43:31;2.38;;;0.55;;
54247;SDS011;40161;39.768;2.722;2022-12-10T06:45:56;2.95;;;0.60;;
54247;SDS011;40161;39.768;2.722;2022-12-10T06:48:22;3.03;;;0.98;;
54247;SDS011;40161;39.768;2.722;2022-12-10T06:50:48;1.55;;;0.50;;
54247;SDS011;40161;39.768;2.722;2022-12-10T06:53:14;2.50;;;0.45;;
54247;SDS011;40161;39.768;2.722;2022-12-10T06:55:39;3.20;;;0.40;;
54247;SDS011;40161;39.768;2.722;2022-12-10T06:58:05;2.53;;;0.60;;
54247;SDS011;40161;39.768;2.722;2022-12-10T07:00:30;3.75;;;0.65;;
54247;SDS011;40161;39.768;2.722;2022-12-10T07:02:56;1.48;;;0.43;;
54247;SDS011;40161;39.768;2.722;2022-12-10T07:05:22;2.67;;;0.88;;
54247;SDS011;40161;39.768;2.722;2022-12-10T07:07:47;2.30;;;0.57;;
54247;SDS011;40161;39.768;2.722;2022-12-10T07:10:13;2.80;;;0.50;;
54247;SDS011;40161;39.768;2.722;2022-12-10T07:12:39;2.63;;;0.70;;
54247;SDS011;40161;39.768;2.722;2022-12-10T07:15:04;1.65;;;0.60;;
54247;SDS011;40161;39.768;2.722;2022-12-10T07:17:30;2.67;;;0.63;;
54247;SDS011;40161;39.768;2.722;2022-12-10T07:19:55;2.08;;;0.70;;
54247;SDS011;40161;39.768;2.722;2022-12-10T07:22:21;3.13;;;0.60;;
54247;SDS011;40161;39.768;2.722;2022-12-10T07:24:47;3.22;;;0.90;;
54247;SDS011;40161;39.768;2.722;2022-12-10T07:27:13;3.78;;;0.80;;
54247;SDS011;40161;39.768;2.722;2022-12-10T07:29:39;3.67;;;0.82;;
54247;SDS011;40161;39.768;2.722;2022-12-10T07:32:05;6.63;;;1.30;;
54247;SDS011;40161;39.768;2.722;2022-12-10T07:34:31;2.72;;;0.80;;
54247;SDS011;40161;39.768;2.722;2022-12-10T07:36:57;4.07;;;1.00;;
54247;SDS011;40161;39.768;2.722;2022-12-10T07:39:22;5.40;;;1.17;;
54247;SDS011;40161;39.768;2.722;2022-12-10T07:41:48;3.35;;;0.85;;
54247;SDS011;40161;39.768;2.722;2022-12-10T07:44:20;2.92;;;0.95;;
54247;SDS011;40161;39.768;2.722;2022-12-10T07:46:47;4.60;;;1.27;;
54247;SDS011;40161;39.768;2.722;2022-12-10T07:49:14;2.58;;;0.95;;
54247;SDS011;40161;39.768;2.722;2022-12-10T07:51:43;3.20;;;1.10;;
54247;SDS011;40161;39.768;2.722;2022-12-10T07:54:13;4.00;;;1.38;;
54247;SDS011;40161;39.768;2.722;2022-12-10T07:56:40;7.13;;;1.63;;
54247;SDS011;40161;39.768;2.722;2022-12-10T07:59:06;6.28;;;1.90;;
54247;SDS011;40161;39.768;2.722;2022-12-10T08:01:32;7.50;;;2.30;;
54247;SDS011;40161;39.768;2.722;2022-12-10T08:03:57;4.68;;;2.20;;
54247;SDS011;40161;39.768;2.722;2022-12-10T08:06:23;5.32;;;2.00;;
54247;SDS011;40161;39.768;2.722;2022-12-10T08:08:50;7.03;;;2.35;;
54247;SDS011;40161;39.768;2.722;2022-12-10T08:11:16;4.25;;;1.75;;
54247;SDS011;40161;39.768;2.722;2022-12-10T08:13:44;4.72;;;1.50;;
54247;SDS011;40161;39.768;2.722;2022-12-10T08:16:17;6.95;;;2.63;;
54247;SDS011;40161;39.768;2.722;2022-12-10T08:18:44;6.47;;;2.53;;
54247;SDS011;40161;39.768;2.722;2022-12-10T08:21:11;8.13;;;2.88;;
54247;SDS011;40161;39.768;2.722;2022-12-10T08:23:41;8.40;;;4.57;;
54247;SDS011;40161;39.768;2.722;2022-12-10T08:26:09;13.93;;;7.38;;
54247;SDS011;40161;39.768;2.722;2022-12-10T08:31:06;6.90;;;2.88;;
54247;SDS011;40161;39.768;2.722;2022-12-10T08:33:34;4.05;;;1.45;;
54247;SDS011;40161;39.768;2.722;2022-12-10T08:36:00;3.58;;;1.55;;
54247;SDS011;40161;39.768;2.722;2022-12-10T08:38:26;4.43;;;1.73;;
54247;SDS011;40161;39.768;2.722;2022-12-10T08:40:52;5.97;;;2.45;;
54247;SDS011;40161;39.768;2.722;2022-12-10T08:43:17;4.90;;;2.00;;
54247;SDS011;40161;39.768;2.722;2022-12-10T08:45:43;4.75;;;2.30;;
54247;SDS011;40161;39.768;2.722;2022-12-10T08:48:09;3.88;;;1.73;;
54247;SDS011;40161;39.768;2.722;2022-12-10T08:50:35;3.63;;;1.58;;
54247;SDS011;40161;39.768;2.722;2022-12-10T08:53:01;4.90;;;2.17;;
54247;SDS011;40161;39.768;2.722;2022-12-10T08:55:27;4.75;;;2.50;;
54247;SDS011;40161;39.768;2.722;2022-12-10T08:57:52;7.05;;;2.00;;
54247;SDS011;40161;39.768;2.722;2022-12-10T09:00:18;6.00;;;2.50;;
54247;SDS011;40161;39.768;2.722;2022-12-10T09:02:44;6.18;;;2.85;;
54247;SDS011;40161;39.768;2.722;2022-12-10T09:05:10;2.95;;;1.27;;
54247;SDS011;40161;39.768;2.722;2022-12-10T09:07:35;3.88;;;1.75;;
54247;SDS011;40161;39.768;2.722;2022-12-10T09:10:01;4.22;;;1.10;;
54247;SDS011;40161;39.768;2.722;2022-12-10T09:12:26;4.45;;;1.40;;
54247;SDS011;40161;39.768;2.722;2022-12-10T09:14:52;5.97;;;2.78;;
54247;SDS011;40161;39.768;2.722;2022-12-10T09:17:18;6.25;;;2.70;;
54247;SDS011;40161;39.768;2.722;2022-12-10T09:19:43;5.57;;;1.98;;
54247;SDS011;40161;39.768;2.722;2022-12-10T09:22:09;5.10;;;2.08;;
54247;SDS011;40161;39.768;2.722;2022-12-10T09:24:34;3.83;;;1.63;;
54247;SDS011;40161;39.768;2.722;2022-12-10T09:27:00;3.58;;;1.45;;
54247;SDS011;40161;39.768;2.722;2022-12-10T09:29:26;6.30;;;2.20;;
54247;SDS011;40161;39.768;2.722;2022-12-10T09:31:52;4.93;;;1.98;;
54247;SDS011;40161;39.768;2.722;2022-12-10T09:34:18;8.82;;;4.75;;
54247;SDS011;40161;39.768;2.722;2022-12-10T09:36:44;8.18;;;3.70;;
54247;SDS011;40161;39.768;2.722;2022-12-10T09:39:10;8.68;;;3.50;;
54247;SDS011;40161;39.768;2.722;2022-12-10T09:44:21;7.13;;;3.03;;
54247;SDS011;40161;39.768;2.722;2022-12-10T09:46:54;6.00;;;2.35;;
54247;SDS011;40161;39.768;2.722;2022-12-10T09:52:16;7.53;;;2.78;;
54247;SDS011;40161;39.768;2.722;2022-12-10T09:54:54;6.05;;;2.25;;
54247;SDS011;40161;39.768;2.722;2022-12-10T09:59:55;8.75;;;4.63;;
54247;SDS011;40161;39.768;2.722;2022-12-10T10:02:25;8.43;;;3.47;;
54247;SDS011;40161;39.768;2.722;2022-12-10T10:08:06;8.48;;;4.28;;
54247;SDS011;40161;39.768;2.722;2022-12-10T10:10:33;8.27;;;3.55;;
54247;SDS011;40161;39.768;2.722;2022-12-10T10:15:34;14.52;;;6.50;;
54247;SDS011;40161;39.768;2.722;2022-12-10T10:20:45;8.20;;;3.13;;
54247;SDS011;40161;39.768;2.722;2022-12-10T10:23:12;11.75;;;3.03;;
54247;SDS011;40161;39.768;2.722;2022-12-10T10:25:40;7.15;;;2.40;;
54247;SDS011;40161;39.768;2.722;2022-12-10T10:28:09;6.55;;;2.17;;
54247;SDS011;40161;39.768;2.722;2022-12-10T10:30:42;8.02;;;2.47;;
54247;SDS011;40161;39.768;2.722;2022-12-10T10:33:09;13.38;;;4.30;;
54247;SDS011;40161;39.768;2.722;2022-12-10T10:35:44;8.88;;;3.50;;
54247;SDS011;40161;39.768;2.722;2022-12-10T10:38:14;8.10;;;2.28;;
54247;SDS011;40161;39.768;2.722;2022-12-10T10:40:43;10.80;;;2.70;;
54247;SDS011;40161;39.768;2.722;2022-12-10T10:46:15;17.38;;;10.90;;
54247;SDS011;40161;39.768;2.722;2022-12-10T10:48:42;8.60;;;2.55;;
54247;SDS011;40161;39.768;2.722;2022-12-10T10:51:15;7.18;;;1.90;;
54247;SDS011;40161;39.768;2.722;2022-12-10T10:53:46;10.65;;;4.30;;
54247;SDS011;40161;39.768;2.722;2022-12-10T10:56:21;18.08;;;11.48;;
54247;SDS011;40161;39.768;2.722;2022-12-10T11:01:19;9.85;;;4.43;;
54247;SDS011;40161;39.768;2.722;2022-12-10T11:03:55;11.70;;;3.88;;
54247;SDS011;40161;39.768;2.722;2022-12-10T11:06:25;8.48;;;3.45;;
54247;SDS011;40161;39.768;2.722;2022-12-10T11:08:55;10.60;;;3.60;;
54247;SDS011;40161;39.768;2.722;2022-12-10T11:14:19;11.60;;;3.63;;
54247;SDS011;40161;39.768;2.722;2022-12-10T11:16:49;10.75;;;3.90;;
54247;SDS011;40161;39.768;2.722;2022-12-10T11:19:21;15.70;;;5.00;;
54247;SDS011;40161;39.768;2.722;2022-12-10T11:21:48;12.65;;;5.07;;
54247;SDS011;40161;39.768;2.722;2022-12-10T11:24:15;14.95;;;6.25;;
54247;SDS011;40161;39.768;2.722;2022-12-10T11:26:47;14.75;;;4.70;;
54247;SDS011;40161;39.768;2.722;2022-12-10T11:43:10;7.28;;;2.97;;
54247;SDS011;40161;39.768;2.722;2022-12-10T11:46:01;9.27;;;3.00;;
54247;SDS011;40161;39.768;2.722;2022-12-10T11:51:44;16.90;;;7.13;;
54247;SDS011;40161;39.768;2.722;2022-12-10T11:57:41;10.27;;;3.63;;
54247;SDS011;40161;39.768;2.722;2022-12-10T12:00:18;10.27;;;3.67;;
54247;SDS011;40161;39.768;2.722;2022-12-10T12:05:41;8.57;;;3.15;;
54247;SDS011;40161;39.768;2.722;2022-12-10T12:16:44;11.85;;;2.90;;
54247;SDS011;40161;39.768;2.722;2022-12-10T12:19:16;6.82;;;2.53;;
54247;SDS011;40161;39.768;2.722;2022-12-10T12:24:19;15.48;;;7.60;;
54247;SDS011;40161;39.768;2.722;2022-12-10T12:26:50;23.48;;;12.00;;
54247;SDS011;40161;39.768;2.722;2022-12-10T12:29:35;22.50;;;9.75;;
54247;SDS011;40161;39.768;2.722;2022-12-10T12:34:53;18.15;;;7.80;;
54247;SDS011;40161;39.768;2.722;2022-12-10T12:37:31;13.05;;;6.63;;
54247;SDS011;40161;39.768;2.722;2022-12-10T12:43:07;11.38;;;4.85;;
54247;SDS011;40161;39.768;2.722;2022-12-10T12:45:41;12.48;;;5.47;;
54247;SDS011;40161;39.768;2.722;2022-12-10T12:53:21;9.30;;;3.53;;
54247;SDS011;40161;39.768;2.722;2022-12-10T12:58:43;8.10;;;2.35;;
54247;SDS011;40161;39.768;2.722;2022-12-10T13:01:20;9.23;;;2.67;;
54247;SDS011;40161;39.768;2.722;2022-12-10T13:03:59;10.95;;;3.58;;
54247;SDS011;40161;39.768;2.722;2022-12-10T13:06:27;7.15;;;3.25;;
54247;SDS011;40161;39.768;2.722;2022-12-10T13:19:40;8.77;;;3.42;;
54247;SDS011;40161;39.768;2.722;2022-12-10T13:22:12;10.57;;;4.38;;
54247;SDS011;40161;39.768;2.722;2022-12-10T13:31:34;7.93;;;2.22;;
54247;SDS011;40161;39.768;2.722;2022-12-10T13:36:26;6.50;;;1.70;;
54247;SDS011;40161;39.768;2.722;2022-12-10T13:41:27;6.72;;;1.85;;
54247;SDS011;40161;39.768;2.722;2022-12-10T13:44:35;12.27;;;5.38;;
54247;SDS011;40161;39.768;2.722;2022-12-10T13:58:39;10.85;;;3.80;;
54247;SDS011;40161;39.768;2.722;2022-12-10T14:06:40;7.63;;;1.90;;
54247;SDS011;40161;39.768;2.722;2022-12-10T14:09:18;6.57;;;1.80;;
54247;SDS011;40161;39.768;2.722;2022-12-10T14:14:29;9.93;;;2.70;;
54247;SDS011;40161;39.768;2.722;2022-12-10T14:17:01;7.45;;;2.80;;
54247;SDS011;40161;39.768;2.722;2022-12-10T14:19:30;6.30;;;2.55;;
54247;SDS011;40161;39.768;2.722;2022-12-10T14:27:53;11.27;;;3.22;;
54247;SDS011;40161;39.768;2.722;2022-12-10T14:30:20;5.13;;;2.33;;
54247;SDS011;40161;39.768;2.722;2022-12-10T14:32:47;23.33;;;10.60;;
54247;SDS011;40161;39.768;2.722;2022-12-10T14:35:23;12.82;;;5.55;;
54247;SDS011;40161;39.768;2.722;2022-12-10T14:37:50;9.63;;;5.15;;
54247;SDS011;40161;39.768;2.722;2022-12-10T14:40:21;8.02;;;3.67;;
54247;SDS011;40161;39.768;2.722;2022-12-10T14:42:50;5.75;;;2.20;;
54247;SDS011;40161;39.768;2.722;2022-12-10T14:45:24;7.53;;;2.40;;
54247;SDS011;40161;39.768;2.722;2022-12-10T14:47:54;8.48;;;2.63;;
54247;SDS011;40161;39.768;2.722;2022-12-10T14:50:20;8.90;;;2.92;;
54247;SDS011;40161;39.768;2.722;2022-12-10T14:52:49;10.10;;;3.40;;
54247;SDS011;40161;39.768;2.722;2022-12-10T14:55:17;7.85;;;2.75;;
54247;SDS011;40161;39.768;2.722;2022-12-10T14:57:52;7.18;;;2.47;;
54247;SDS011;40161;39.768;2.722;2022-12-10T15:00:22;5.80;;;1.85;;
54247;SDS011;40161;39.768;2.722;2022-12-10T15:02:51;5.47;;;2.03;;
54247;SDS011;40161;39.768;2.722;2022-12-10T15:05:21;6.88;;;2.58;;
54247;SDS011;40161;39.768;2.722;2022-12-10T15:07:56;6.28;;;1.92;;
54247;SDS011;40161;39.768;2.722;2022-12-10T15:10:36;6.05;;;1.80;;
54247;SDS011;40161;39.768;2.722;2022-12-10T15:13:04;6.80;;;2.67;;
54247;SDS011;40161;39.768;2.722;2022-12-10T15:31:40;5.90;;;2.03;;
54247;SDS011;40161;39.768;2.722;2022-12-10T15:33:56;6.63;;;2.58;;
54247;SDS011;40161;39.768;2.722;2022-12-10T15:36:39;6.13;;;2.40;;
54247;SDS011;40161;39.768;2.722;2022-12-10T15:44:19;9.43;;;3.80;;
54247;SDS011;40161;39.768;2.722;2022-12-10T15:49:47;7.82;;;2.92;;
54247;SDS011;40161;39.768;2.722;2022-12-10T15:52:24;8.63;;;3.60;;
54247;SDS011;40161;39.768;2.722;2022-12-10T15:54:52;10.40;;;4.22;;
54247;SDS011;40161;39.768;2.722;2022-12-10T15:57:40;8.32;;;3.28;;
54247;SDS011;40161;39.768;2.722;2022-12-10T16:00:19;9.60;;;4.07;;
54247;SDS011;40161;39.768;2.722;2022-12-10T16:02:54;13.57;;;7.72;;
54247;SDS011;40161;39.768;2.722;2022-12-10T16:05:24;20.55;;;12.50;;
54247;SDS011;40161;39.768;2.722;2022-12-10T16:07:52;124.00;;;73.55;;
54247;SDS011;40161;39.768;2.722;2022-12-10T16:10:20;52.83;;;36.45;;
54247;SDS011;40161;39.768;2.722;2022-12-10T16:12:48;32.30;;;19.27;;
54247;SDS011;40161;39.768;2.722;2022-12-10T16:15:23;16.50;;;9.60;;
54247;SDS011;40161;39.768;2.722;2022-12-10T16:17:51;11.50;;;6.13;;
54247;SDS011;40161;39.768;2.722;2022-12-10T16:20:19;13.63;;;7.47;;
54247;SDS011;40161;39.768;2.722;2022-12-10T16:22:55;18.63;;;12.15;;
54247;SDS011;40161;39.768;2.722;2022-12-10T16:25:23;37.90;;;19.83;;
54247;SDS011;40161;39.768;2.722;2022-12-10T16:27:50;45.72;;;24.73;;
54247;SDS011;40161;39.768;2.722;2022-12-10T16:30:20;48.35;;;27.15;;
54247;SDS011;40161;39.768;2.722;2022-12-10T16:32:49;47.97;;;27.60;;
54247;SDS011;40161;39.768;2.722;2022-12-10T16:35:15;35.60;;;22.10;;
54247;SDS011;40161;39.768;2.722;2022-12-10T16:37:45;40.13;;;27.83;;
54247;SDS011;40161;39.768;2.722;2022-12-10T16:40:12;24.17;;;15.82;;
54247;SDS011;40161;39.768;2.722;2022-12-10T16:42:39;16.35;;;10.25;;
54247;SDS011;40161;39.768;2.722;2022-12-10T16:45:14;15.88;;;11.85;;
54247;SDS011;40161;39.768;2.722;2022-12-10T16:47:41;18.40;;;12.18;;
54247;SDS011;40161;39.768;2.722;2022-12-10T16:50:07;18.00;;;11.93;;
54247;SDS011;40161;39.768;2.722;2022-12-10T16:52:33;18.42;;;12.23;;
54247;SDS011;40161;39.768;2.722;2022-12-10T16:54:58;43.53;;;30.65;;
54247;SDS011;40161;39.768;2.722;2022-12-10T16:57:24;25.55;;;17.27;;
54247;SDS011;40161;39.768;2.722;2022-12-10T16:59:49;20.30;;;12.52;;
54247;SDS011;40161;39.768;2.722;2022-12-10T17:02:16;30.02;;;20.40;;
54247;SDS011;40161;39.768;2.722;2022-12-10T17:04:42;21.95;;;15.93;;
54247;SDS011;40161;39.768;2.722;2022-12-10T17:07:12;22.40;;;15.13;;
54247;SDS011;40161;39.768;2.722;2022-12-10T17:13:00;21.30;;;16.23;;
54247;SDS011;40161;39.768;2.722;2022-12-10T17:15:26;31.05;;;20.48;;
54247;SDS011;40161;39.768;2.722;2022-12-10T17:17:51;34.25;;;24.27;;
54247;SDS011;40161;39.768;2.722;2022-12-10T17:20:17;29.23;;;18.63;;
54247;SDS011;40161;39.768;2.722;2022-12-10T17:22:43;47.85;;;29.50;;
54247;SDS011;40161;39.768;2.722;2022-12-10T17:25:09;34.78;;;23.73;;
54247;SDS011;40161;39.768;2.722;2022-12-10T17:27:35;26.35;;;17.90;;
54247;SDS011;40161;39.768;2.722;2022-12-10T17:30:00;38.92;;;28.38;;
54247;SDS011;40161;39.768;2.722;2022-12-10T17:32:26;43.70;;;32.17;;
54247;SDS011;40161;39.768;2.722;2022-12-10T17:34:52;29.35;;;21.27;;
54247;SDS011;40161;39.768;2.722;2022-12-10T17:37:18;30.55;;;21.23;;
54247;SDS011;40161;39.768;2.722;2022-12-10T17:39:45;41.33;;;30.45;;
54247;SDS011;40161;39.768;2.722;2022-12-10T17:42:11;26.65;;;19.10;;
54247;SDS011;40161;39.768;2.722;2022-12-10T17:44:37;32.47;;;21.15;;
54247;SDS011;40161;39.768;2.722;2022-12-10T17:47:17;30.02;;;21.98;;
54247;SDS011;40161;39.768;2.722;2022-12-10T17:49:46;42.60;;;27.58;;
54247;SDS011;40161;39.768;2.722;2022-12-10T17:52:11;37.00;;;24.98;;